Terminal Aerodrome Forecast
Issued by NWS

Home | Current Version | Previous Version | Text Only | Print | Product List | Glossary On
Versions: 1 2 3 4 5 6 7 8 9 10 11 12 13 14 15 16 17
000
FTUS41 KCAR 201120
TAFPQI
TAF
KPQI 201120Z 2012/2112 36006KT 5SM -RASN OVC006
     FM201400 36008KT P6SM VCSH OVC012
     FM201700 35012G22KT P6SM OVC025
     FM202200 35010KT P6SM BKN035 OVC060=

USA.gov is the U.S. government's official web portal to all federal, state and local government web resources and services.